Portada
METAR-TAF:

METAR-TAF

Aeroports :

Chatham Municipal Airport

Chatham, Massachusetts, Estats Units d'Amèrica

latitud: 41-41-15N, longitud: 069-59-36W, altitud: 20 m

Observació

L'informe es va fer fa 22 minuts, a les 17:28 UTC
Vent 4 kt amb direcció variable
Temperatura 18°C
Humitat 77%
Pressió 1024 hPa
Visibilitat: 16.1 km
Núvols disperses a una alçada de 800 ft
Cel cobert a una alçada de 1600 ft

METAR: KCQX 261728Z AUTO VRB04KT 10SM SCT008 OVC016 18/14 A3023 RMK AO2 T01830144

Hora: 13:50 (17:50 UTC)


TAF: manca

Observacions i pronòstics meteorològics de més de 4000 aeroports (METAR i TAF).

Les estacions disponibles són els punts grocs i vermells al mapa.

Posi el ratolí al punt desitjat per veure el nom de l'estació.

Feu clic per veure les observacions i els pronòstics meteorològics.

Per canviar el mapa: feu clic els botons verds amb una creu de color negre per apropar; al botó verd amb un guió per allunyar la imatge; o en les fletxes verdes per a mapes adjacents.


METAR-TAF: